createdAt,value
2018-11-25T00:01:36.982Z,52.40
2018-11-25T00:04:04.944Z,48.87
2018-11-25T00:06:38.576Z,51.47
2018-11-25T00:09:07.632Z,56.63
2018-11-25T00:11:35.084Z,47.77
2018-11-25T00:14:02.897Z,44.90
2018-11-25T00:16:30.487Z,48.00
2018-11-25T00:18:58.450Z,41.30
2018-11-25T00:21:26.022Z,43.47
2018-11-25T00:23:53.452Z,50.00
2018-11-25T00:26:21.225Z,43.33
2018-11-25T00:28:48.682Z,49.33
2018-11-25T00:31:16.139Z,48.77
2018-11-25T00:33:43.588Z,48.20
2018-11-25T00:36:11.440Z,45.77
2018-11-25T00:38:38.989Z,46.67
2018-11-25T00:41:06.467Z,45.53
2018-11-25T00:43:34.042Z,47.63
2018-11-25T00:46:01.480Z,50.10
2018-11-25T00:48:29.102Z,44.37
2018-11-25T00:50:56.706Z,45.80
2018-11-25T00:53:24.387Z,45.57
2018-11-25T00:55:51.821Z,42.87
2018-11-25T00:58:19.421Z,45.00
2018-11-25T01:00:46.892Z,45.27
2018-11-25T01:03:14.367Z,44.87
2018-11-25T01:05:42.159Z,48.50
2018-11-25T01:08:09.702Z,53.60
2018-11-25T01:10:37.213Z,61.40
2018-11-25T01:13:04.971Z,51.40
2018-11-25T01:15:32.406Z,58.30
2018-11-25T01:17:59.933Z,57.33
2018-11-25T01:20:27.460Z,57.97
2018-11-25T01:22:54.947Z,55.03
2018-11-25T01:25:22.382Z,53.37
2018-11-25T01:27:50.044Z,47.50
2018-11-25T01:30:17.832Z,48.00
2018-11-25T01:32:45.305Z,44.63
2018-11-25T01:35:15.296Z,50.07
2018-11-25T01:37:43.180Z,58.80
2018-11-25T01:40:11.201Z,58.90
2018-11-25T01:42:38.731Z,56.20
2018-11-25T01:45:06.728Z,57.50
2018-11-25T01:47:34.396Z,57.73
2018-11-25T01:50:01.896Z,57.10
2018-11-25T01:52:29.328Z,52.27
2018-11-25T01:54:56.778Z,61.90
2018-11-25T01:57:24.263Z,62.47
2018-11-25T01:59:52.215Z,59.60
2018-11-25T02:02:19.904Z,57.13
2018-11-25T02:04:47.393Z,59.13
2018-11-25T02:07:14.987Z,57.13
2018-11-25T02:09:42.508Z,57.20
2018-11-25T02:12:10.004Z,53.23
2018-11-25T02:14:37.450Z,54.40
2018-11-25T02:17:04.982Z,53.83
2018-11-25T02:19:34.642Z,54.80
2018-11-25T02:22:02.328Z,57.57
2018-11-25T02:24:29.799Z,54.53
2018-11-25T02:26:57.293Z,51.07
2018-11-25T02:29:24.921Z,56.70
2018-11-25T02:31:52.483Z,53.37
2018-11-25T02:34:20.553Z,53.10
2018-11-25T02:36:47.972Z,51.50
2018-11-25T02:39:15.921Z,50.23
2018-11-25T02:41:43.558Z,54.40
2018-11-25T02:44:10.996Z,57.70
2018-11-25T02:46:38.423Z,49.90
2018-11-25T02:49:06.234Z,59.23
2018-11-25T02:51:33.667Z,60.37
2018-11-25T02:54:01.184Z,56.43
2018-11-25T02:56:28.661Z,62.73
2018-11-25T02:58:56.070Z,62.87
2018-11-25T03:01:23.866Z,61.03
2018-11-25T03:03:51.366Z,60.17
2018-11-25T03:06:19.004Z,56.83
2018-11-25T03:08:46.444Z,50.17
2018-11-25T03:11:14.070Z,53.33
2018-11-25T03:13:41.806Z,53.90
2018-11-25T03:16:09.240Z,50.37
2018-11-25T03:18:36.738Z,52.73
2018-11-25T03:21:04.317Z,50.40
2018-11-25T03:23:31.744Z,53.67
2018-11-25T03:25:59.358Z,53.57
2018-11-25T03:28:26.790Z,45.27
2018-11-25T03:30:54.228Z,51.60
2018-11-25T03:33:21.821Z,51.40
2018-11-25T03:35:49.256Z,48.33
2018-11-25T03:38:16.763Z,52.43
2018-11-25T03:40:44.632Z,55.53
2018-11-25T03:43:12.223Z,47.80
2018-11-25T03:45:39.643Z,48.70
2018-11-25T03:48:07.249Z,51.03
2018-11-25T03:50:34.937Z,55.87
2018-11-25T03:53:02.455Z,51.23
2018-11-25T03:55:30.089Z,56.50
2018-11-25T03:57:57.525Z,59.13
2018-11-25T04:00:25.075Z,58.27
2018-11-25T04:02:53.242Z,51.63
2018-11-25T04:05:20.680Z,49.90
2018-11-25T04:07:48.128Z,48.37
2018-11-25T04:10:16.218Z,44.33
2018-11-25T04:12:43.652Z,46.20
2018-11-25T04:15:12.404Z,44.30
2018-11-25T04:17:39.874Z,53.30
2018-11-25T04:20:09.090Z,46.73
2018-11-25T04:22:36.993Z,51.20
2018-11-25T04:25:05.023Z,46.60
2018-11-25T04:27:32.634Z,53.67
2018-11-25T04:30:00.081Z,51.83
2018-11-25T04:32:27.605Z,63.30
2018-11-25T04:34:55.086Z,70.13
2018-11-25T04:37:22.929Z,63.97
2018-11-25T04:39:50.437Z,62.10
2018-11-25T04:42:17.946Z,58.83
2018-11-25T04:44:45.403Z,59.30
2018-11-25T04:47:12.965Z,54.67
2018-11-25T04:49:40.395Z,58.43
2018-11-25T04:52:08.101Z,62.17
2018-11-25T04:54:35.739Z,56.97
2018-11-25T04:57:03.162Z,55.83
2018-11-25T04:59:31.141Z,59.80
2018-11-25T05:01:58.631Z,56.03
2018-11-25T05:04:26.046Z,59.87
2018-11-25T05:06:53.473Z,58.80
2018-11-25T05:09:20.930Z,62.17
2018-11-25T05:11:48.358Z,56.07
2018-11-25T05:14:15.975Z,53.23
2018-11-25T05:16:43.583Z,58.00
2018-11-25T05:19:11.090Z,60.17
2018-11-25T05:21:38.591Z,61.50
2018-11-25T05:24:06.203Z,62.97
2018-11-25T05:26:34.003Z,63.53
2018-11-25T05:29:01.521Z,64.43
2018-11-25T05:31:29.355Z,58.97
2018-11-25T05:33:56.797Z,55.83
2018-11-25T05:36:24.225Z,60.93
2018-11-25T05:38:51.824Z,58.33
2018-11-25T05:41:19.245Z,64.60
2018-11-25T05:43:46.786Z,67.60
2018-11-25T05:46:14.313Z,64.23
2018-11-25T05:48:41.789Z,69.40
2018-11-25T05:51:09.220Z,74.13
2018-11-25T05:53:36.979Z,66.93
2018-11-25T05:56:04.388Z,74.87
2018-11-25T05:58:31.823Z,65.80
2018-11-25T06:00:59.395Z,66.50
2018-11-25T06:03:26.833Z,67.93
2018-11-25T06:05:54.463Z,67.87
2018-11-25T06:08:22.028Z,73.33
2018-11-25T06:10:49.490Z,65.57
2018-11-25T06:13:16.998Z,70.93
2018-11-25T06:15:44.553Z,64.33
2018-11-25T06:18:11.981Z,66.67
2018-11-25T06:20:46.119Z,67.87
2018-11-25T06:23:13.660Z,71.10
2018-11-25T06:25:41.104Z,64.07
2018-11-25T06:28:08.586Z,66.67
2018-11-25T06:30:36.130Z,70.87
2018-11-25T06:33:03.542Z,61.40
2018-11-25T06:35:31.076Z,67.03
2018-11-25T06:37:58.501Z,68.77
2018-11-25T06:40:26.883Z,72.03
2018-11-25T06:42:54.353Z,69.63
2018-11-25T06:45:22.596Z,80.47
2018-11-25T06:47:50.113Z,68.77
2018-11-25T06:50:17.859Z,81.43
2018-11-25T06:52:45.425Z,83.50
2018-11-25T06:55:12.994Z,87.40
2018-11-25T06:57:40.688Z,96.30
2018-11-25T07:00:12.180Z,96.10
2018-11-25T07:02:39.626Z,119.63
2018-11-25T07:05:07.416Z,156.07
2018-11-25T07:07:34.993Z,171.63
2018-11-25T07:10:02.463Z,184.23
2018-11-25T07:12:30.159Z,229.90
2018-11-25T07:14:57.610Z,209.00
2018-11-25T07:17:25.051Z,197.50
2018-11-25T07:19:52.572Z,281.93
2018-11-25T07:22:20.026Z,272.27
2018-11-25T07:24:47.461Z,273.77
2018-11-25T07:27:15.090Z,253.00
2018-11-25T07:29:43.038Z,252.77
2018-11-25T07:32:10.494Z,252.77
2018-11-25T07:34:38.021Z,243.83
2018-11-25T07:37:05.654Z,230.27
2018-11-25T07:39:33.100Z,194.47
2018-11-25T07:42:00.612Z,156.20
2018-11-25T07:44:28.193Z,159.60
2018-11-25T07:46:55.636Z,154.53
2018-11-25T07:49:23.303Z,150.37
2018-11-25T07:51:50.724Z,141.67
2018-11-25T07:54:18.156Z,123.47
2018-11-25T07:56:45.790Z,131.20
2018-11-25T07:59:13.383Z,126.37
2018-11-25T08:01:41.340Z,124.13
2018-11-25T08:04:08.937Z,104.40
2018-11-25T08:06:36.369Z,98.50
2018-11-25T08:09:04.886Z,98.67
2018-11-25T08:11:32.405Z,95.83
2018-11-25T08:13:59.872Z,82.40
2018-11-25T08:16:27.373Z,83.43
2018-11-25T08:18:56.141Z,77.10
2018-11-25T08:21:23.564Z,79.00
2018-11-25T08:23:51.022Z,78.83
2018-11-25T08:26:18.525Z,75.43
2018-11-25T08:28:46.121Z,82.33
2018-11-25T08:31:13.739Z,84.50
2018-11-25T08:33:41.245Z,81.43
2018-11-25T08:36:08.730Z,77.77
2018-11-25T08:38:36.215Z,72.73
2018-11-25T08:41:03.710Z,75.03
2018-11-25T08:43:31.141Z,72.10
2018-11-25T08:45:58.786Z,69.00
2018-11-25T08:48:26.352Z,70.23
2018-11-25T08:50:53.869Z,66.60
2018-11-25T08:53:21.426Z,68.53
2018-11-25T08:55:49.353Z,71.03
2018-11-25T08:58:18.744Z,70.20
2018-11-25T09:00:46.369Z,67.40
2018-11-25T09:03:14.278Z,64.17
2018-11-25T09:05:41.821Z,65.93
2018-11-25T09:08:09.490Z,73.77
2018-11-25T09:10:37.094Z,85.17
2018-11-25T09:13:04.558Z,83.87
2018-11-25T09:15:32.309Z,99.30
2018-11-25T09:18:00.053Z,120.67
2018-11-25T09:20:27.569Z,113.13
2018-11-25T09:22:55.039Z,121.07
2018-11-25T09:25:25.242Z,118.03
2018-11-25T09:27:53.004Z,112.20
2018-11-25T09:30:21.032Z,113.27
2018-11-25T09:32:48.585Z,115.97
2018-11-25T09:35:16.276Z,125.37
2018-11-25T09:37:43.813Z,128.23
2018-11-25T09:40:12.016Z,121.53
2018-11-25T09:42:39.498Z,126.37
2018-11-25T09:45:08.117Z,127.50
2018-11-25T09:47:35.621Z,138.17
2018-11-25T09:50:03.099Z,135.80
2018-11-25T09:52:30.541Z,135.33
2018-11-25T09:54:58.244Z,144.17
2018-11-25T09:57:25.695Z,145.47
2018-11-25T09:59:53.290Z,143.00
2018-11-25T10:02:20.794Z,143.43
2018-11-25T10:04:48.405Z,149.97
2018-11-25T10:07:15.967Z,151.83
2018-11-25T10:09:43.580Z,157.23
2018-11-25T10:12:11.031Z,123.13
2018-11-25T10:14:38.518Z,126.37
2018-11-25T10:17:06.087Z,124.67
2018-11-25T10:19:33.538Z,124.60
2018-11-25T10:22:00.981Z,114.17
2018-11-25T10:24:28.497Z,103.90
2018-11-25T10:26:56.466Z,105.67
2018-11-25T10:29:23.999Z,100.70
2018-11-25T10:31:51.478Z,93.43
2018-11-25T10:34:18.912Z,89.77
2018-11-25T10:36:46.538Z,93.07
2018-11-25T10:39:14.514Z,98.77
2018-11-25T10:41:42.518Z,103.70
2018-11-25T10:44:10.093Z,100.90
2018-11-25T10:46:37.755Z,75.87
2018-11-25T10:49:05.789Z,83.67
2018-11-25T10:51:33.399Z,79.20
2018-11-25T10:54:01.144Z,83.97
2018-11-25T10:56:28.760Z,89.73
2018-11-25T10:58:56.315Z,88.20
2018-11-25T11:01:29.212Z,81.13
2018-11-25T11:03:58.040Z,76.17
2018-11-25T11:06:31.202Z,73.00
2018-11-25T11:08:58.783Z,74.47
2018-11-25T11:11:26.420Z,73.77
2018-11-25T11:13:53.950Z,78.83
2018-11-25T11:16:21.407Z,84.40
2018-11-25T11:18:48.855Z,81.73
2018-11-25T11:21:16.329Z,75.80
2018-11-25T11:23:43.927Z,79.53
2018-11-25T11:26:26.110Z,73.87
2018-11-25T11:28:53.547Z,68.17
2018-11-25T11:31:21.003Z,64.83
2018-11-25T11:33:49.150Z,67.33
2018-11-25T11:36:16.580Z,66.33
2018-11-25T11:38:44.391Z,82.10
2018-11-25T11:41:12.004Z,83.70
2018-11-25T11:43:39.480Z,81.00
2018-11-25T11:46:07.096Z,76.20
2018-11-25T11:48:34.765Z,78.63
2018-11-25T11:51:02.540Z,89.67
2018-11-25T11:53:29.999Z,88.93
2018-11-25T11:55:57.482Z,81.00
2018-11-25T11:58:24.957Z,83.53
2018-11-25T12:00:52.434Z,66.70
2018-11-25T12:03:26.312Z,64.50
2018-11-25T12:05:47.403Z,46.07
2018-11-25T12:08:15.069Z,51.63
2018-11-25T12:10:42.599Z,45.37
2018-11-25T12:13:10.369Z,45.87
2018-11-25T12:15:37.863Z,48.70
2018-11-25T12:18:06.376Z,52.53
2018-11-25T12:20:33.922Z,56.07
2018-11-25T12:23:01.505Z,61.47
2018-11-25T12:25:29.030Z,61.30
2018-11-25T12:27:56.486Z,60.37
2018-11-25T12:30:23.985Z,72.63
2018-11-25T12:32:51.934Z,68.70
2018-11-25T12:35:19.378Z,67.27
2018-11-25T12:37:47.190Z,56.70
2018-11-25T12:40:16.439Z,68.30
2018-11-25T12:42:44.863Z,74.10
2018-11-25T12:45:13.097Z,70.63
2018-11-25T12:47:40.602Z,74.00
2018-11-25T12:50:09.336Z,76.73
2018-11-25T12:52:37.109Z,74.60
2018-11-25T12:55:05.035Z,79.23
2018-11-25T12:57:32.860Z,69.53
2018-11-25T13:00:00.456Z,71.00
2018-11-25T13:02:28.654Z,76.67
2018-11-25T13:04:56.126Z,78.90
2018-11-25T13:07:23.578Z,78.00
2018-11-25T13:09:51.156Z,73.17
2018-11-25T13:12:19.033Z,82.27
2018-11-25T13:14:46.812Z,80.97
2018-11-25T13:17:14.771Z,82.10
2018-11-25T13:19:42.536Z,77.13
2018-11-25T13:22:10.540Z,72.93
2018-11-25T13:24:38.076Z,69.23
2018-11-25T13:27:05.797Z,72.63
2018-11-25T13:29:33.258Z,65.50
2018-11-25T13:32:00.748Z,63.93
2018-11-25T13:34:28.454Z,68.17
2018-11-25T13:36:56.692Z,67.53
2018-11-25T13:39:24.353Z,67.20
2018-11-25T13:41:51.809Z,65.60
2018-11-25T13:44:19.291Z,65.50
2018-11-25T13:46:46.807Z,62.37
2018-11-25T13:49:14.714Z,62.63
2018-11-25T13:51:42.158Z,62.90
2018-11-25T13:54:09.659Z,66.83
2018-11-25T13:56:37.106Z,64.77
2018-11-25T13:59:04.544Z,67.20
2018-11-25T14:01:32.193Z,62.40
2018-11-25T14:03:59.609Z,65.73
2018-11-25T14:06:27.113Z,61.20
2018-11-25T14:08:55.064Z,61.90
2018-11-25T14:11:22.522Z,63.90
2018-11-25T14:13:50.017Z,63.83
2018-11-25T14:16:18.533Z,64.37
2018-11-25T14:18:46.381Z,63.03
2018-11-25T14:21:13.910Z,64.60
2018-11-25T14:23:41.426Z,70.37
2018-11-25T14:26:11.519Z,67.83
2018-11-25T14:28:38.972Z,67.77
2018-11-25T14:31:06.663Z,65.80
2018-11-25T14:33:34.078Z,68.77
2018-11-25T14:36:01.634Z,61.30
2018-11-25T14:38:29.178Z,62.93
2018-11-25T14:40:56.792Z,69.10
2018-11-25T14:43:24.218Z,65.17
2018-11-25T14:45:51.723Z,68.73
2018-11-25T14:48:19.478Z,74.57
2018-11-25T14:50:46.917Z,73.90
2018-11-25T14:53:14.447Z,69.30
2018-11-25T14:55:42.123Z,67.97
2018-11-25T14:58:09.675Z,67.80
2018-11-25T15:00:37.237Z,64.00
2018-11-25T15:03:05.761Z,69.60
2018-11-25T15:05:34.951Z,78.73
2018-11-25T15:08:02.423Z,71.23
2018-11-25T15:10:29.888Z,63.30
2018-11-25T15:12:57.341Z,64.10
2018-11-25T15:15:24.912Z,66.90
2018-11-25T15:17:52.459Z,68.50
2018-11-25T15:20:20.403Z,62.23
2018-11-25T15:22:49.192Z,59.47
2018-11-25T15:25:21.761Z,57.70
2018-11-25T15:27:49.278Z,54.03
2018-11-25T15:30:16.847Z,55.13
2018-11-25T15:32:44.522Z,52.77
2018-11-25T15:35:12.443Z,47.67
2018-11-25T15:37:40.847Z,51.00
2018-11-25T15:40:16.574Z,49.60
2018-11-25T15:42:44.480Z,45.33
2018-11-25T15:45:12.037Z,47.17
2018-11-25T15:47:40.362Z,49.73
2018-11-25T15:50:08.844Z,43.50
2018-11-25T15:52:36.345Z,45.80
2018-11-25T15:55:04.177Z,47.83
2018-11-25T15:57:31.606Z,49.47
2018-11-25T15:59:59.069Z,48.70
2018-11-25T16:02:26.599Z,49.13
2018-11-25T16:04:54.154Z,49.07
2018-11-25T16:07:21.620Z,53.27
2018-11-25T16:09:49.166Z,59.07
2018-11-25T16:12:16.625Z,63.07
2018-11-25T16:14:44.156Z,64.00
2018-11-25T16:17:11.825Z,66.90
2018-11-25T16:19:39.507Z,68.27
2018-11-25T16:22:06.938Z,81.17
2018-11-25T16:24:34.563Z,76.50
2018-11-25T16:27:02.300Z,78.37
2018-11-25T16:29:29.780Z,77.77
2018-11-25T16:31:57.556Z,90.87
2018-11-25T16:34:25.254Z,82.03
2018-11-25T16:36:52.685Z,85.10
2018-11-25T16:39:20.168Z,84.43
2018-11-25T16:41:47.596Z,82.13
2018-11-25T16:44:15.212Z,81.80
2018-11-25T16:46:42.760Z,85.63
2018-11-25T16:49:10.490Z,83.80
2018-11-25T16:51:38.024Z,80.60
2018-11-25T16:54:05.818Z,84.20
2018-11-25T16:56:33.492Z,78.13
2018-11-25T16:59:00.999Z,82.57
2018-11-25T17:01:28.719Z,82.97
2018-11-25T17:03:56.185Z,78.10
2018-11-25T17:06:23.630Z,81.83
2018-11-25T17:08:51.174Z,77.10
2018-11-25T17:11:18.621Z,74.90
2018-11-25T17:13:46.257Z,78.30
2018-11-25T17:16:14.010Z,80.33
2018-11-25T17:18:41.454Z,76.60
2018-11-25T17:21:08.880Z,72.43
2018-11-25T17:23:36.368Z,75.80
2018-11-25T17:26:04.053Z,77.63
2018-11-25T17:28:31.701Z,75.60
2018-11-25T17:30:59.177Z,76.03
2018-11-25T17:33:26.629Z,86.57
2018-11-25T17:35:54.068Z,81.57
2018-11-25T17:38:21.558Z,92.90
2018-11-25T17:40:49.207Z,93.33
2018-11-25T17:43:17.776Z,91.57
2018-11-25T17:45:45.554Z,105.27
2018-11-25T17:48:13.083Z,96.10
2018-11-25T17:50:40.657Z,98.50
2018-11-25T17:53:08.557Z,99.07
2018-11-25T17:55:36.166Z,95.57
2018-11-25T17:58:03.727Z,105.53
2018-11-25T18:00:40.424Z,117.87
2018-11-25T18:03:09.034Z,112.63
2018-11-25T18:05:38.938Z,104.70
2018-11-25T18:08:04.288Z,105.13
2018-11-25T18:10:32.138Z,102.70
2018-11-25T18:12:59.636Z,99.23
2018-11-25T18:15:27.183Z,98.73
2018-11-25T18:17:58.441Z,100.93
2018-11-25T18:20:27.106Z,104.47
2018-11-25T18:22:54.734Z,105.23
2018-11-25T18:25:22.898Z,111.50
2018-11-25T18:27:50.540Z,103.23
2018-11-25T18:30:18.065Z,108.40
2018-11-25T18:32:45.855Z,107.93
2018-11-25T18:35:13.971Z,106.77
2018-11-25T18:37:41.510Z,110.97
2018-11-25T18:40:09.835Z,103.60
2018-11-25T18:42:37.648Z,109.30
2018-11-25T18:45:07.183Z,107.70
2018-11-25T18:47:35.379Z,111.80
2018-11-25T18:50:02.967Z,110.20
2018-11-25T18:52:30.509Z,115.27
2018-11-25T18:54:57.377Z,119.97
2018-11-25T18:57:25.074Z,113.30
2018-11-25T18:59:52.522Z,109.00
2018-11-25T19:02:22.134Z,103.30
2018-11-25T19:04:49.620Z,106.33
2018-11-25T19:07:17.204Z,102.73
2018-11-25T19:09:44.715Z,106.03
2018-11-25T19:12:12.943Z,110.77
2018-11-25T19:14:40.447Z,103.10
2018-11-25T19:17:07.922Z,112.73
2018-11-25T19:19:35.532Z,116.17
2018-11-25T19:22:03.105Z,112.57
2018-11-25T19:24:30.541Z,116.00
2018-11-25T19:26:58.039Z,115.83
2018-11-25T19:29:30.914Z,121.50
2018-11-25T19:31:58.853Z,118.77
2018-11-25T19:34:26.343Z,119.20
2018-11-25T19:36:54.035Z,120.03
2018-11-25T19:39:21.541Z,123.57
2018-11-25T19:41:54.665Z,120.57
2018-11-25T19:44:22.188Z,121.97
2018-11-25T19:46:49.626Z,117.10
2018-11-25T19:49:17.413Z,121.97
2018-11-25T19:51:44.895Z,116.20
2018-11-25T19:54:12.601Z,116.67
2018-11-25T19:56:40.218Z,119.37
2018-11-25T19:59:07.849Z,111.87
2018-11-25T20:01:35.369Z,117.13
2018-11-25T20:04:02.936Z,122.83
2018-11-25T20:06:30.541Z,118.37
2018-11-25T20:08:58.152Z,121.47
2018-11-25T20:11:25.693Z,117.03
2018-11-25T20:13:53.532Z,118.43
2018-11-25T20:16:26.275Z,112.17
2018-11-25T20:18:53.746Z,105.27
2018-11-25T20:21:26.573Z,112.40
2018-11-25T20:23:54.154Z,109.47
2018-11-25T20:26:21.614Z,107.17
2018-11-25T20:28:49.231Z,113.10
2018-11-25T20:31:16.854Z,123.67
2018-11-25T20:33:52.194Z,111.20
2018-11-25T20:36:15.958Z,109.27
2018-11-25T20:38:48.827Z,118.10
2018-11-25T20:41:17.288Z,109.43
2018-11-25T20:43:44.790Z,106.50
2018-11-25T20:46:17.970Z,108.23
2018-11-25T20:48:45.541Z,106.00
2018-11-25T20:51:13.294Z,99.07
2018-11-25T20:53:46.333Z,103.40
2018-11-25T20:56:13.864Z,105.93
2018-11-25T20:58:41.436Z,95.83
2018-11-25T21:01:08.938Z,106.97
2018-11-25T21:03:36.438Z,108.93
2018-11-25T21:06:04.078Z,112.67
2018-11-25T21:08:31.744Z,107.10
2018-11-25T21:10:59.242Z,107.97
2018-11-25T21:13:32.337Z,104.17
2018-11-25T21:16:00.046Z,108.90
2018-11-25T21:18:27.606Z,110.30
2018-11-25T21:20:55.248Z,111.03
2018-11-25T21:23:22.941Z,108.70
2018-11-25T21:25:50.600Z,105.57
2018-11-25T21:28:18.098Z,105.83
2018-11-25T21:30:46.221Z,106.90
2018-11-25T21:33:13.906Z,101.17
2018-11-25T21:35:41.393Z,102.17
2018-11-25T21:38:09.080Z,102.90
2018-11-25T21:40:37.337Z,97.30
2018-11-25T21:43:04.857Z,105.73
2018-11-25T21:45:32.400Z,106.67
2018-11-25T21:48:00.099Z,110.87
2018-11-25T21:50:28.094Z,122.30
2018-11-25T21:52:55.670Z,118.83
2018-11-25T21:55:29.995Z,114.97
2018-11-25T21:58:04.452Z,112.57
2018-11-25T22:00:32.165Z,112.17
2018-11-25T22:03:00.007Z,122.67
2018-11-25T22:05:27.489Z,118.57
2018-11-25T22:07:55.179Z,114.73
2018-11-25T22:10:22.833Z,119.87
2018-11-25T22:12:50.659Z,116.10
2018-11-25T22:15:19.048Z,112.80
2018-11-25T22:17:46.530Z,109.57
2018-11-25T22:20:15.033Z,111.07
2018-11-25T22:22:42.716Z,103.20
2018-11-25T22:25:11.916Z,114.00
2018-11-25T22:27:39.570Z,108.77
2018-11-25T22:30:09.086Z,119.90
2018-11-25T22:32:36.657Z,119.87
2018-11-25T22:35:05.016Z,126.10
2018-11-25T22:37:32.932Z,133.37
2018-11-25T22:40:05.839Z,135.57
2018-11-25T22:42:33.432Z,128.23
2018-11-25T22:45:01.030Z,109.40
2018-11-25T22:47:28.756Z,113.83
2018-11-25T22:49:57.002Z,113.83
2018-11-25T22:52:24.559Z,112.37
2018-11-25T22:55:03.206Z,121.93
2018-11-25T22:57:30.785Z,121.43
2018-11-25T22:59:58.340Z,126.13
2018-11-25T23:02:25.865Z,123.13
2018-11-25T23:04:59.019Z,111.13
2018-11-25T23:07:26.664Z,99.00
2018-11-25T23:09:54.480Z,93.90
2018-11-25T23:12:22.077Z,101.87
2018-11-25T23:14:49.668Z,108.57
2018-11-25T23:17:17.172Z,104.47
2018-11-25T23:19:44.728Z,99.87
2018-11-25T23:22:12.246Z,92.17
2018-11-25T23:24:39.988Z,91.30
2018-11-25T23:27:07.526Z,93.80
2018-11-25T23:29:35.217Z,93.37
2018-11-25T23:32:02.815Z,98.87
2018-11-25T23:34:30.327Z,90.27
2018-11-25T23:36:57.906Z,101.57
2018-11-25T23:39:25.609Z,97.37
2018-11-25T23:41:53.088Z,96.97
2018-11-25T23:44:20.621Z,94.17
2018-11-25T23:46:48.265Z,92.77
2018-11-25T23:49:15.845Z,100.83
2018-11-25T23:51:43.833Z,99.33
2018-11-25T23:54:11.143Z,90.50
2018-11-25T23:56:38.803Z,91.53
2018-11-25T23:59:06.393Z,94.33
